Time;durP1;ratioP1;P1;durP2;ratioP2;P2;SDS_P1;SDS_P2;PMS_P1;PMS_P2;Temp;Humidity;BMP_temperature;BMP_pressure;BME280_temperature;BME280_humidity;BME280_pressure;Samples;Min_cycle;Max_cycle;Signal;HPM_P1;HPM_P2
2022/06/11 00:02:06;;;;;;;3.42;3.08;;;;;;;15.41;71.70;100607.22;10511973;28;20400;-77
2022/06/11 00:07:12;;;;;;;3.20;2.65;;;;;;;15.35;71.58;100610.97;10510567;28;20052;-77
2022/06/11 00:12:15;;;;;;;4.93;4.15;;;;;;;15.24;71.91;100611.44;10514585;28;20119;-78
2022/06/11 00:17:18;;;;;;;4.28;3.15;;;;;;;15.23;71.32;100608.81;10494608;28;20052;-77
2022/06/11 00:22:22;;;;;;;2.88;2.60;;;;;;;15.36;70.35;100608.28;10511646;28;20101;-77
2022/06/11 00:27:24;;;;;;;4.13;2.90;;;;;;;15.39;70.13;100604.63;10511993;28;20128;-77
2022/06/11 00:32:26;;;;;;;4.28;3.00;;;;;;;15.12;71.51;100602.19;10496227;28;20143;-77
2022/06/11 00:37:28;;;;;;;3.70;2.72;;;;;;;15.33;70.80;100605.75;10509983;28;20068;-77
2022/06/11 00:42:33;;;;;;;3.45;2.63;;;;;;;15.13;71.95;100598.63;10511783;28;20043;-78
2022/06/11 00:47:35;;;;;;;3.63;2.72;;;;;;;14.84;73.25;100599.81;10497881;28;20048;-78
2022/06/11 00:52:42;;;;;;;3.53;2.72;;;;;;;15.01;73.09;100593.84;10515939;28;20043;-78
2022/06/11 00:58:08;;;;;;;8.35;3.13;;;;;;;14.86;73.52;100592.66;10512945;28;20059;-78
2022/06/11 01:03:14;;;;;;;3.22;2.95;;;;;;;14.91;73.47;100592.50;10512592;28;20110;-78
2022/06/11 01:08:49;;;;;;;4.72;3.40;;;;;;;14.76;74.40;100586.03;10511770;28;20053;-78
2022/06/11 01:14:24;;;;;;;4.13;3.05;;;;;;;14.91;73.80;100579.25;10512626;28;20067;-78
2022/06/11 01:19:41;;;;;;;3.15;2.95;;;;;;;14.77;74.36;100579.81;10512524;28;20045;-78
2022/06/11 01:25:04;;;;;;;3.45;2.70;;;;;;;14.50;75.34;100586.22;10493783;28;20053;-78
2022/06/11 01:30:11;;;;;;;2.83;2.63;;;;;;;14.54;75.41;100580.75;10512575;28;20052;-78
2022/06/11 01:35:32;;;;;;;4.07;2.60;;;;;;;14.35;76.20;100572.63;10510739;28;20055;-78
2022/06/11 01:40:42;;;;;;;3.65;3.20;;;;;;;14.43;75.42;100579.38;10493181;28;20052;-78
2022/06/11 01:45:45;;;;;;;2.83;2.53;;;;;;;14.47;74.88;100583.63;10507492;28;20112;-78
2022/06/11 01:50:57;;;;;;;4.00;3.50;;;;;;;14.20;75.99;100582.94;10509464;28;20048;-78
2022/06/11 01:56:11;;;;;;;3.78;2.55;;;;;;;14.17;76.24;100585.72;10509710;28;20033;-78
2022/06/11 02:01:31;;;;;;;5.15;2.88;;;;;;;14.13;75.97;100591.09;10513073;28;20405;-78
2022/06/11 02:06:45;;;;;;;5.13;3.15;;;;;;;14.16;76.13;100589.25;10513912;28;20085;-79
2022/06/11 02:11:59;;;;;;;3.30;2.75;;;;;;;14.16;75.96;100591.88;10512795;28;20041;-78
2022/06/11 02:17:21;;;;;;;3.85;2.88;;;;;;;13.99;76.12;100596.03;10516440;28;20045;-78
2022/06/11 02:22:29;;;;;;;3.78;3.10;;;;;;;13.83;77.18;100600.16;10500667;28;20075;-78
2022/06/11 02:27:33;;;;;;;3.97;3.33;;;;;;;13.61;78.12;100602.69;10513270;28;20048;-78
2022/06/11 02:32:36;;;;;;;3.85;2.55;;;;;;;13.91;77.54;100600.75;10512974;28;20046;-78
2022/06/11 02:37:41;;;;;;;4.75;3.03;;;;;;;14.02;76.82;100605.63;10495446;28;20049;-78
2022/06/11 02:42:44;;;;;;;3.63;3.15;;;;;;;13.95;76.66;100601.50;10514919;28;20048;-78
2022/06/11 02:47:48;;;;;;;5.78;2.70;;;;;;;13.81;77.32;100597.59;10513355;28;20078;-78
2022/06/11 02:52:51;;;;;;;4.88;3.80;;;;;;;13.84;76.74;100594.81;10512061;28;20041;-78
2022/06/11 02:57:53;;;;;;;4.80;3.35;;;;;;;13.46;79.60;100605.84;10513245;28;20493;-78
2022/06/11 03:02:55;;;;;;;5.13;3.50;;;;;;;13.35;79.90;100603.59;10515102;28;20041;-78
2022/06/11 03:07:59;;;;;;;3.35;2.80;;;;;;;13.38;79.94;100614.06;10518479;28;20135;-78
2022/06/11 03:13:01;;;;;;;3.80;3.40;;;;;;;13.63;78.56;100611.41;10516829;28;20023;-78
2022/06/11 03:18:03;;;;;;;4.68;2.80;;;;;;;13.74;77.73;100617.19;10514776;28;20123;-78
2022/06/11 03:23:06;;;;;;;6.72;3.17;;;;;;;13.85;76.76;100619.44;10511893;28;20037;-77
2022/06/11 03:28:11;;;;;;;2.83;2.58;;;;;;;13.67;77.44;100617.47;10507876;28;20127;-77
2022/06/11 03:33:13;;;;;;;4.00;2.58;;;;;;;13.63;78.24;100630.81;10506908;28;20044;-77
2022/06/11 03:38:16;;;;;;;3.15;2.90;;;;;;;13.57;78.88;100630.13;10491833;28;20072;-78
2022/06/11 03:43:18;;;;;;;3.28;2.63;;;;;;;13.61;78.67;100627.34;10507800;28;20412;-77
2022/06/11 03:48:20;;;;;;;3.13;2.00;;;;;;;13.69;78.25;100637.63;10511589;28;20059;-77
2022/06/11 03:53:22;;;;;;;2.40;2.20;;;;;;;13.82;77.30;100636.28;10505421;28;20409;-77
2022/06/11 03:58:25;;;;;;;2.28;2.05;;;;;;;13.93;77.11;100645.59;10519480;22;20044;-66
2022/06/11 04:03:27;;;;;;;2.78;2.35;;;;;;;13.86;77.13;100637.91;10498799;28;20045;-67
2022/06/11 04:08:29;;;;;;;2.00;1.90;;;;;;;14.03;76.46;100641.69;10500862;28;20064;-66
2022/06/11 04:13:33;;;;;;;2.72;2.30;;;;;;;14.02;76.66;100642.63;10499424;28;20486;-67
2022/06/11 04:18:43;;;;;;;2.60;2.40;;;;;;;14.17;76.71;100651.81;10499508;28;20051;-68
2022/06/11 04:23:47;;;;;;;2.65;2.45;;;;;;;14.39;75.22;100650.09;10499008;28;20041;-68
2022/06/11 04:28:49;;;;;;;4.18;2.38;;;;;;;14.65;73.96;100649.09;10499492;28;20056;-68
2022/06/11 04:33:51;;;;;;;3.28;2.30;;;;;;;14.77;72.86;100640.69;10499533;28;20475;-68
2022/06/11 04:38:53;;;;;;;2.45;2.05;;;;;;;15.03;72.00;100641.44;10497187;28;20055;-68
2022/06/11 04:43:55;;;;;;;3.13;1.90;;;;;;;15.20;71.75;100638.09;10497479;28;20037;-68
2022/06/11 04:48:57;;;;;;;3.17;1.88;;;;;;;15.82;68.61;100637.25;10498099;28;20563;-68
2022/06/11 04:53:58;;;;;;;2.83;2.25;;;;;;;15.74;69.20;100645.53;10498063;28;20098;-68
2022/06/11 04:59:00;;;;;;;3.75;1.60;;;;;;;15.99;67.58;100647.97;10497770;28;20052;-68
2022/06/11 05:04:07;;;;;;;;;;;;;;;16.25;66.23;100645.97;10498326;28;20405;-68
2022/06/11 05:09:14;;;;;;;2.72;1.67;;;;;;;16.70;64.65;100642.94;10498505;28;19920;-68
2022/06/11 05:14:15;;;;;;;5.38;1.52;;;;;;;17.05;63.41;100643.09;10497644;28;20068;-68
2022/06/11 05:19:20;;;;;;;3.10;1.77;;;;;;;17.35;62.56;100651.31;10497457;28;20119;-69
2022/06/11 05:24:23;;;;;;;2.78;1.48;;;;;;;18.13;58.98;100652.63;10497284;28;20033;-68
2022/06/11 05:29:30;;;;;;;1.90;1.70;;;;;;;18.43;59.42;100650.13;10498381;28;20390;-69
2022/06/11 05:34:32;;;;;;;2.67;1.50;;;;;;;19.15;56.16;100649.63;10500316;28;20037;-68
2022/06/11 05:39:33;;;;;;;1.88;1.45;;;;;;;19.73;55.25;100649.88;10505944;28;20403;-68
2022/06/11 05:44:36;;;;;;;2.88;1.40;;;;;;;20.31;53.63;100646.28;10505436;28;20374;-69
2022/06/11 05:49:40;;;;;;;2.33;1.10;;;;;;;20.16;54.00;100658.78;10505444;28;20044;-69
2022/06/11 05:54:43;;;;;;;2.22;1.25;;;;;;;20.99;51.75;100650.91;10504902;28;20051;-69
2022/06/11 05:59:48;;;;;;;1.88;1.40;;;;;;;21.15;50.70;100654.25;10504562;28;20490;-69
2022/06/11 06:04:50;;;;;;;3.00;1.33;;;;;;;21.50;49.48;100653.75;10504572;28;20493;-69
2022/06/11 06:09:52;;;;;;;2.03;1.23;;;;;;;22.29;48.46;100645.59;10504754;28;20485;-69
2022/06/11 06:15:01;;;;;;;3.40;1.20;;;;;;;22.48;46.84;100641.59;10504055;28;20040;-69
2022/06/11 06:20:06;;;;;;;2.28;1.08;;;;;;;22.39;47.96;100635.09;10504533;28;20052;-69
2022/06/11 06:25:13;;;;;;;4.47;1.40;;;;;;;22.69;47.50;100636.53;10503665;28;20040;-69
2022/06/11 06:30:15;;;;;;;2.40;1.15;;;;;;;23.01;46.88;100632.34;10504068;28;20410;-69
2022/06/11 06:35:17;;;;;;;1.20;1.10;;;;;;;23.60;45.84;100631.53;10502948;28;20075;-69
2022/06/11 06:40:19;;;;;;;3.70;1.02;;;;;;;23.96;44.55;100638.59;10502750;28;20051;-69
2022/06/11 06:45:22;;;;;;;2.35;1.30;;;;;;;23.78;45.13;100640.88;10502036;28;20489;-68
2022/06/11 06:50:24;;;;;;;2.45;1.15;;;;;;;24.07;44.05;100635.03;10502884;28;20147;-68
2022/06/11 06:55:26;;;;;;;1.92;1.00;;;;;;;24.30;44.49;100633.22;10502455;28;20040;-69
2022/06/11 07:00:27;;;;;;;1.65;1.00;;;;;;;24.72;43.64;100633.47;10501306;28;20422;-69
2022/06/11 07:05:29;;;;;;;1.88;0.90;;;;;;;25.04;42.13;100630.81;10499426;28;20090;-68
2022/06/11 07:10:31;;;;;;;1.45;0.90;;;;;;;25.49;42.52;100630.66;10497621;28;20414;-68
2022/06/11 07:15:33;;;;;;;1.85;1.20;;;;;;;25.12;42.57;100640.00;10498623;28;20501;-68
2022/06/11 07:20:36;;;;;;;2.15;1.13;;;;;;;25.07;42.48;100630.56;10500772;28;20049;-68
2022/06/11 07:25:40;;;;;;;4.88;0.90;;;;;;;25.61;41.46;100630.47;10501617;28;20036;-69
2022/06/11 07:30:44;;;;;;;3.13;1.00;;;;;;;25.63;41.95;100623.13;10501437;28;20049;-69
2022/06/11 07:35:48;;;;;;;3.13;1.10;;;;;;;26.25;40.43;100633.97;10501590;28;20040;-69
2022/06/11 07:40:50;;;;;;;3.88;0.93;;;;;;;26.42;40.21;100626.09;10500827;28;20048;-68
2022/06/11 07:45:52;;;;;;;1.60;1.08;;;;;;;26.53;38.68;100625.19;10501257;28;20040;-69
2022/06/11 07:50:53;;;;;;;2.05;0.90;;;;;;;26.42;39.82;100626.09;10499708;28;20048;-68
2022/06/11 07:55:55;;;;;;;2.22;1.05;;;;;;;26.96;37.87;100625.84;10500073;28;20049;-67
2022/06/11 08:00:57;;;;;;;3.58;1.00;;;;;;;26.63;40.08;100623.38;10499205;28;20051;-68
2022/06/11 08:06:02;;;;;;;2.85;0.88;;;;;;;27.50;37.38;100613.69;10498805;28;20115;-68
2022/06/11 08:11:05;;;;;;;3.95;0.80;;;;;;;27.96;36.30;100609.34;10498891;28;20047;-68
2022/06/11 08:16:08;;;;;;;2.13;0.80;;;;;;;27.00;36.89;100611.94;10489818;28;20036;-68
2022/06/11 08:21:10;;;;;;;2.08;1.05;;;;;;;26.36;36.74;100617.72;10498545;28;20409;-68
2022/06/11 08:26:12;;;;;;;3.15;0.90;;;;;;;26.79;34.85;100608.53;10498300;28;20045;-69
2022/06/11 08:31:14;;;;;;;1.48;0.60;;;;;;;27.85;30.56;100611.25;10498618;28;20051;-69
2022/06/11 08:36:15;;;;;;;1.20;0.70;;;;;;;28.05;30.10;100608.47;10498984;28;20143;-69
2022/06/11 08:41:20;;;;;;;1.83;0.80;;;;;;;27.86;30.30;100610.25;10496284;28;20489;-69
2022/06/11 08:46:26;;;;;;;2.63;0.82;;;;;;;28.02;31.29;100601.50;10497425;28;20482;-69
2022/06/11 08:51:32;;;;;;;;;;;;;;;28.40;30.54;100594.25;10497322;28;20047;-69
2022/06/11 08:56:40;;;;;;;2.80;0.88;;;;;;;28.36;29.49;100603.69;10497969;28;19920;-70
2022/06/11 09:01:51;;;;;;;2.40;0.60;;;;;;;28.24;30.86;100602.97;10480393;28;20509;-69
2022/06/11 09:07:06;;;;;;;2.22;0.52;;;;;;;28.48;30.34;100599.78;10491865;28;20040;-69
2022/06/11 09:12:40;;;;;;;2.20;0.60;;;;;;;28.71;30.27;100602.91;10497248;28;20068;-68
2022/06/11 09:18:00;;;;;;;1.87;0.70;;;;;;;28.65;30.97;100593.56;10327283;28;20107;-68
2022/06/11 09:23:28;;;;;;;3.17;0.80;;;;;;;27.32;32.38;100600.06;10302691;28;20053;-68
2022/06/11 09:28:40;;;;;;;1.45;0.70;;;;;;;26.29;34.13;100603.94;10300501;28;20186;-68
2022/06/11 09:33:54;;;;;;;1.75;0.80;;;;;;;26.04;34.74;100591.78;10288223;28;20062;-69
2022/06/11 09:39:25;;;;;;;1.38;0.60;;;;;;;25.93;35.23;100602.63;10355870;28;20124;-69
2022/06/11 09:44:38;;;;;;;3.15;0.70;;;;;;;26.20;34.36;100596.66;10368604;28;20089;-68
2022/06/11 09:49:49;;;;;;;2.13;0.75;;;;;;;26.14;33.94;100589.97;10371328;28;20046;-68
2022/06/11 09:54:53;;;;;;;1.92;0.80;;;;;;;27.08;32.92;100595.03;10454848;28;20040;-69
2022/06/11 10:00:04;;;;;;;1.20;0.50;;;;;;;28.38;30.35;100597.13;10484736;22;20037;-80
2022/06/11 10:05:15;;;;;;;2.10;0.50;;;;;;;28.49;30.73;100590.66;10508657;28;20033;-79
2022/06/11 10:10:24;;;;;;;2.05;0.55;;;;;;;29.36;29.52;100591.91;10507406;28;20120;-79
2022/06/11 10:15:34;;;;;;;1.00;0.50;;;;;;;30.20;28.55;100585.91;10508189;28;20036;-80
2022/06/11 10:20:47;;;;;;;2.00;0.50;;;;;;;29.77;28.74;100589.53;10511987;28;20045;-80
2022/06/11 10:26:22;;;;;;;1.38;0.57;;;;;;;30.62;27.94;100579.59;10515449;28;20037;-80
2022/06/11 10:31:31;;;;;;;1.17;0.50;;;;;;;30.34;28.04;100588.00;10370280;28;20053;-79
2022/06/11 10:37:03;;;;;;;2.17;0.60;;;;;;;28.98;29.61;100580.38;10354628;28;20050;-80
2022/06/11 10:42:13;;;;;;;1.48;0.45;;;;;;;28.31;30.54;100581.63;10385133;28;20129;-80
2022/06/11 10:47:29;;;;;;;1.17;0.70;;;;;;;28.01;31.61;100583.59;10373448;28;20076;-80
2022/06/11 10:52:30;;;;;;;1.40;0.80;;;;;;;27.57;32.85;100580.53;10385682;28;20462;-79
2022/06/11 10:57:34;;;;;;;2.42;0.60;;;;;;;27.70;31.57;100576.69;10352710;28;20116;-80
2022/06/11 11:02:49;;;;;;;6.07;0.85;;;;;;;28.18;31.57;100579.25;10372624;28;20050;-81
2022/06/11 11:07:54;;;;;;;1.95;0.80;;;;;;;28.18;30.58;100573.84;10504969;28;20131;-80
2022/06/11 11:13:01;;;;;;;1.20;0.70;;;;;;;27.29;32.12;100578.75;10515695;28;20051;-80
2022/06/11 11:18:15;;;;;;;1.52;0.60;;;;;;;27.18;34.44;100577.03;10513889;28;20043;-80
2022/06/11 11:23:23;;;;;;;1.20;0.70;;;;;;;28.28;32.65;100571.09;10511803;28;20044;-80
2022/06/11 11:28:44;;;;;;;1.95;0.70;;;;;;;27.95;31.52;100565.28;10517024;28;20079;-80
2022/06/11 11:34:12;;;;;;;1.00;0.50;;;;;;;29.22;31.47;100570.78;10494723;28;20045;-80
2022/06/11 11:39:19;;;;;;;1.77;0.60;;;;;;;29.47;31.38;100574.53;10513471;28;20052;-81
2022/06/11 11:44:23;;;;;;;0.70;0.52;;;;;;;29.53;31.15;100568.47;10513105;28;20049;-81
2022/06/11 11:49:29;;;;;;;1.30;0.60;;;;;;;29.21;30.33;100555.56;10530519;28;20075;-81
2022/06/11 11:54:32;;;;;;;1.75;0.60;;;;;;;28.74;31.39;100564.75;10530924;28;20044;-80
2022/06/11 11:59:56;;;;;;;1.25;0.63;;;;;;;29.04;29.71;100555.44;10536354;28;20051;-80
2022/06/11 12:05:07;;;;;;;1.25;0.70;;;;;;;29.33;30.26;100565.13;10534366;28;20055;-80
2022/06/11 12:10:35;;;;;;;1.33;0.52;;;;;;;29.33;28.42;100565.13;10496738;28;20048;-81
2022/06/11 12:15:58;;;;;;;3.55;0.55;;;;;;;29.13;30.35;100559.03;10506040;28;20045;-81
2022/06/11 12:21:06;;;;;;;1.20;0.40;;;;;;;29.88;29.13;100565.72;10511064;28;20060;-80
2022/06/11 12:26:25;;;;;;;1.92;0.60;;;;;;;30.46;29.13;100553.28;10509589;28;20478;-81
2022/06/11 12:31:28;;;;;;;1.48;0.50;;;;;;;29.73;29.64;100556.47;10511337;28;20036;-80
2022/06/11 12:36:42;;;;;;;1.90;0.57;;;;;;;29.42;29.73;100550.66;10509947;28;20036;-80
2022/06/11 12:42:13;;;;;;;1.80;0.70;;;;;;;29.06;31.47;100549.84;10507343;28;20449;-78
2022/06/11 12:47:24;;;;;;;1.25;0.60;;;;;;;28.87;31.21;100542.72;10506492;28;20041;-80
2022/06/11 12:52:42;;;;;;;1.40;0.80;;;;;;;29.37;31.94;100544.84;10504694;28;20409;-80
2022/06/11 12:58:21;;;;;;;1.45;0.50;;;;;;;29.70;29.92;100543.22;10506874;28;20048;-83
2022/06/11 13:03:51;;;;;;;1.80;0.60;;;;;;;30.39;30.22;100544.09;10506382;28;20048;-81
2022/06/11 13:09:09;;;;;;;1.88;0.70;;;;;;;29.81;29.61;100539.41;10505945;28;20044;-80
2022/06/11 13:14:34;;;;;;;1.98;0.55;;;;;;;29.99;30.38;100551.03;10509280;28;20418;-80
2022/06/11 13:20:04;;;;;;;0.90;0.60;;;;;;;29.89;29.35;100537.59;10507364;28;20044;-81
2022/06/11 13:25:39;;;;;;;1.92;0.68;;;;;;;29.52;29.61;100545.13;10507748;28;20041;-81
2022/06/11 13:31:18;;;;;;;1.98;0.70;;;;;;;29.51;29.62;100530.72;10506538;28;20044;-81
2022/06/11 13:36:30;;;;;;;2.40;0.70;;;;;;;29.31;30.23;100530.09;10488078;28;20386;-80
2022/06/11 13:41:38;;;;;;;1.67;0.68;;;;;;;28.90;31.10;100528.84;10506102;28;20036;-81
2022/06/11 13:46:51;;;;;;;1.63;0.50;;;;;;;28.88;30.83;100522.75;10505927;28;20036;-81
2022/06/11 13:52:00;;;;;;;1.30;0.52;;;;;;;29.25;30.44;100516.31;10506470;28;20489;-80
2022/06/11 13:57:17;;;;;;;2.38;0.60;;;;;;;28.74;30.66;100516.03;10512691;28;20036;-81
2022/06/11 14:02:37;;;;;;;2.50;0.75;;;;;;;28.34;31.70;100516.44;10513917;28;20048;-81
2022/06/11 14:07:40;;;;;;;5.10;1.23;;;;;;;28.80;31.44;100514.56;10513614;28;20060;-80
2022/06/11 14:13:27;;;;;;;3.47;0.77;;;;;;;28.84;31.53;100508.69;10515281;28;20041;-81
2022/06/11 14:18:35;;;;;;;1.30;0.70;;;;;;;28.80;30.34;100510.00;10388335;28;20065;-80
2022/06/11 14:23:37;;;;;;;2.00;0.80;;;;;;;28.39;32.24;100503.34;10373048;28;20062;-82
2022/06/11 14:28:45;;;;;;;2.38;0.63;;;;;;;27.97;32.56;100511.06;10390056;28;20060;-81
2022/06/11 14:34:18;;;;;;;1.95;0.63;;;;;;;28.27;31.27;100499.97;10390544;28;20058;-81
2022/06/11 14:39:32;;;;;;;2.35;0.65;;;;;;;28.02;31.68;100500.66;10353924;28;20470;-81
2022/06/11 14:44:34;;;;;;;1.30;0.60;;;;;;;28.81;30.04;100491.91;10378998;28;20041;-80
2022/06/11 14:49:39;;;;;;;2.00;0.60;;;;;;;28.54;31.03;100496.38;10391143;28;20057;-81
2022/06/11 14:55:14;;;;;;;2.83;0.60;;;;;;;28.70;29.93;100492.16;10465274;28;20045;-80
2022/06/11 15:00:34;;;;;;;2.20;0.60;;;;;;;28.33;30.12;100491.25;10495427;28;20641;-82
2022/06/11 15:05:58;;;;;;;1.73;0.60;;;;;;;28.73;29.76;100491.84;10510892;28;20037;-81
2022/06/11 15:11:18;;;;;;;1.48;0.50;;;;;;;28.70;29.12;100492.16;10514385;28;20056;-80
2022/06/11 15:16:27;;;;;;;2.42;0.70;;;;;;;29.07;29.16;100481.16;10513576;28;20401;-80
2022/06/11 15:21:34;;;;;;;3.08;0.90;;;;;;;29.95;28.51;100487.31;10513647;28;20040;-80
2022/06/11 15:26:43;;;;;;;2.05;0.90;;;;;;;29.67;28.93;100483.13;10511881;28;20041;-80
2022/06/11 15:31:57;;;;;;;1.15;0.60;;;;;;;29.29;28.97;100479.81;10512892;28;20048;-80
2022/06/11 15:37:02;;;;;;;4.13;1.20;;;;;;;29.38;28.96;100481.56;10511088;28;20043;-80
2022/06/11 15:42:05;;;;;;;2.72;0.88;;;;;;;28.88;29.57;100469.50;10511593;28;20486;-80
2022/06/11 15:47:12;;;;;;;2.40;1.20;;;;;;;28.86;30.65;100467.94;10507791;28;20044;-80
2022/06/11 15:52:29;;;;;;;1.70;0.60;;;;;;;28.07;31.77;100472.22;10509192;28;20055;-81
2022/06/11 15:57:31;;;;;;;2.30;0.70;;;;;;;29.21;29.47;100477.03;10507826;28;20071;-80
2022/06/11 16:02:34;;;;;;;2.63;1.08;;;;;;;28.87;30.85;100478.63;10540484;22;20048;-79
2022/06/11 16:07:37;;;;;;;1.73;0.90;;;;;;;29.45;29.51;100484.50;10525817;28;20072;-79
2022/06/11 16:12:38;;;;;;;4.47;0.98;;;;;;;28.23;31.98;100482.34;10521873;28;20104;-80
2022/06/11 16:17:42;;;;;;;6.07;1.60;;;;;;;28.43;31.40;100482.25;10523640;28;20075;-82
2022/06/11 16:22:46;;;;;;;2.75;0.82;;;;;;;27.78;32.10;100487.69;10531239;28;20044;-81
2022/06/11 16:27:50;;;;;;;2.35;1.90;;;;;;;28.20;31.22;100493.47;10525698;28;20032;-80
2022/06/11 16:32:53;;;;;;;2.25;1.52;;;;;;;27.51;33.11;100492.03;10526574;28;20045;-80
2022/06/11 16:37:55;;;;;;;2.15;1.00;;;;;;;27.45;32.42;100489.94;10528195;28;20037;-80
2022/06/11 16:43:26;;;;;;;1.33;0.80;;;;;;;26.97;34.01;100488.13;10524340;28;20044;-80
2022/06/11 16:48:46;;;;;;;2.78;0.88;;;;;;;27.07;33.33;100483.56;10398446;28;20050;-81
2022/06/11 16:59:42;;;;;;;2.35;1.70;;;;;;;26.62;33.92;100486.00;10350732;28;20493;-80
2022/06/11 17:04:58;;;;;;;4.28;1.42;;;;;;;26.17;35.02;100486.47;10403376;28;20137;-81
2022/06/11 17:10:00;;;;;;;7.72;1.75;;;;;;;25.95;36.59;100495.63;10412222;28;20078;-80
2022/06/11 17:15:04;;;;;;;2.35;1.00;;;;;;;25.84;36.01;100490.31;10366779;28;20066;-81
2022/06/11 17:20:06;;;;;;;3.20;1.00;;;;;;;25.53;36.82;100490.28;10399290;28;20038;-81
2022/06/11 17:25:10;;;;;;;3.40;1.50;;;;;;;25.45;37.64;100487.41;10503585;28;20074;-81
2022/06/11 17:30:13;;;;;;;4.45;1.80;;;;;;;25.39;38.37;100486.13;10531353;28;20044;-81
2022/06/11 17:35:15;;;;;;;2.38;1.40;;;;;;;25.22;38.42;100488.56;10544428;28;20045;-80
2022/06/11 17:40:20;;;;;;;2.17;1.23;;;;;;;25.52;36.83;100479.66;10540058;28;20053;-81
2022/06/11 17:45:25;;;;;;;4.23;1.97;;;;;;;25.45;37.26;100484.72;10543807;28;20036;-81
2022/06/11 17:50:28;;;;;;;4.23;1.67;;;;;;;25.03;38.17;100486.56;10537887;28;20052;-80
2022/06/11 17:55:30;;;;;;;1.48;0.77;;;;;;;25.20;38.33;100488.69;10544242;28;20041;-78
2022/06/11 18:00:32;;;;;;;3.33;1.00;;;;;;;24.82;39.44;100484.69;10536844;28;20057;-81
2022/06/11 18:05:37;;;;;;;2.47;1.15;;;;;;;24.85;40.06;100480.91;10543504;28;20028;-80
2022/06/11 18:10:43;;;;;;;2.58;0.77;;;;;;;24.74;40.67;100481.78;10541520;28;20041;-80
2022/06/11 18:15:54;;;;;;;5.20;1.20;;;;;;;24.64;41.49;100487.09;10544315;28;20045;-81
2022/06/11 18:20:55;;;;;;;2.22;0.80;;;;;;;24.54;41.42;100491.53;10548566;28;20048;-82
2022/06/11 18:25:57;;;;;;;2.20;1.08;;;;;;;24.55;41.89;100492.38;10543063;28;20037;-81
2022/06/11 18:30:59;;;;;;;2.65;1.10;;;;;;;24.42;41.75;100489.84;10537355;28;20068;-81
2022/06/11 18:36:01;;;;;;;2.05;1.10;;;;;;;24.16;42.49;100495.50;10539102;28;20044;-81
2022/06/11 18:41:02;;;;;;;2.42;1.60;;;;;;;24.23;42.89;100492.31;10538489;28;20062;-82
2022/06/11 18:46:04;;;;;;;2.40;1.25;;;;;;;23.96;43.62;100501.63;10536498;28;20049;-82
2022/06/11 18:51:06;;;;;;;2.00;1.17;;;;;;;23.70;45.09;100497.50;10532247;28;20048;-82
2022/06/11 18:56:08;;;;;;;1.95;1.15;;;;;;;23.89;44.51;100508.47;10534611;28;20060;-82
2022/06/11 19:01:09;;;;;;;1.65;1.00;;;;;;;23.46;45.88;100516.31;10533332;28;20488;-82
2022/06/11 19:06:11;;;;;;;4.22;1.33;;;;;;;23.34;45.72;100527.06;10532769;28;20510;-82
2022/06/11 19:11:14;;;;;;;2.50;1.20;;;;;;;23.32;46.11;100531.66;10519499;28;20585;-82
2022/06/11 19:16:15;;;;;;;1.40;0.80;;;;;;;23.23;46.06;100520.78;10516831;28;20045;-82
2022/06/11 19:21:17;;;;;;;2.10;0.95;;;;;;;23.11;47.51;100522.63;10517276;28;20044;-82
2022/06/11 19:26:23;;;;;;;2.17;1.10;;;;;;;22.54;48.44;100525.97;10520402;28;20044;-82
2022/06/11 19:31:25;;;;;;;3.60;1.50;;;;;;;22.30;50.03;100526.78;10538868;28;20048;-82
2022/06/11 19:36:34;;;;;;;2.22;1.20;;;;;;;22.09;50.66;100533.66;10526221;28;20037;-82
2022/06/11 19:41:38;;;;;;;;;;;;;;;21.91;51.33;100542.06;10532021;28;20074;-82
2022/06/11 19:46:40;;;;;;;2.30;1.40;;;;;;;21.78;51.56;100537.66;10528818;28;19947;-82
2022/06/11 19:51:42;;;;;;;2.15;1.10;;;;;;;21.75;50.89;100535.22;10520257;28;20040;-82
2022/06/11 19:56:45;;;;;;;2.17;1.67;;;;;;;21.92;50.39;100538.44;10518192;28;20079;-80
2022/06/11 20:01:46;;;;;;;2.55;1.40;;;;;;;21.74;50.92;100537.06;10511693;28;20040;-81
2022/06/11 20:06:48;;;;;;;2.72;1.70;;;;;;;21.55;52.35;100540.13;10511175;28;20047;-81
2022/06/11 20:11:51;;;;;;;3.30;1.73;;;;;;;21.28;53.30;100542.00;10509589;28;20044;-80
2022/06/11 20:16:53;;;;;;;2.78;1.58;;;;;;;21.02;53.95;100547.28;10509991;28;20155;-81
2022/06/11 20:21:57;;;;;;;3.58;2.15;;;;;;;20.86;54.11;100541.28;10509909;28;20128;-81
2022/06/11 20:27:00;;;;;;;2.78;2.17;;;;;;;20.81;54.53;100554.09;10511022;28;20062;-82
2022/06/11 20:32:02;;;;;;;2.92;2.08;;;;;;;20.79;54.69;100564.88;10510398;28;20565;-80
2022/06/11 20:37:03;;;;;;;4.43;2.80;;;;;;;20.71;55.46;100560.97;10508608;28;20045;-81
2022/06/11 20:42:05;;;;;;;4.70;3.58;;;;;;;20.75;56.11;100563.34;10509461;28;20123;-82
2022/06/11 20:47:10;;;;;;;3.15;2.83;;;;;;;20.52;56.70;100564.00;10510513;28;20043;-81
2022/06/11 20:52:17;;;;;;;3.65;2.25;;;;;;;20.29;57.85;100560.13;10507094;28;20502;-81
2022/06/11 20:57:19;;;;;;;2.53;2.10;;;;;;;20.15;58.09;100567.19;10505797;28;20033;-81
2022/06/11 21:02:25;;;;;;;3.13;2.50;;;;;;;20.05;58.53;100565.16;10532655;28;20044;-80
2022/06/11 21:12:47;;;;;;;3.03;2.30;;;;;;;19.98;59.00;100563.84;10520386;28;20067;-83
2022/06/11 21:17:50;;;;;;;3.30;2.83;;;;;;;19.89;59.74;100563.47;10510010;28;20536;-82
2022/06/11 21:22:56;;;;;;;3.67;3.30;;;;;;;19.90;59.74;100567.84;10508617;28;20470;-82
2022/06/11 21:27:58;;;;;;;3.85;2.95;;;;;;;19.84;60.54;100560.25;10506824;28;20044;-82
2022/06/11 21:32:59;;;;;;;5.82;3.20;;;;;;;19.64;60.98;100561.44;10507964;28;20041;-82
2022/06/11 21:38:01;;;;;;;3.10;2.38;;;;;;;19.57;61.44;100564.56;10509351;28;20040;-82
2022/06/11 21:43:03;;;;;;;3.70;2.17;;;;;;;19.60;61.10;100567.03;10509177;28;20136;-82
2022/06/11 21:48:05;;;;;;;3.10;2.28;;;;;;;19.49;61.45;100575.69;10507548;28;20087;-82
2022/06/11 21:53:07;;;;;;;3.63;2.40;;;;;;;19.36;61.60;100578.22;10521480;28;20088;-81
2022/06/11 21:58:09;;;;;;;3.03;2.20;;;;;;;19.34;61.62;100580.13;10532541;28;20139;-82
2022/06/11 22:03:13;;;;;;;5.65;2.75;;;;;;;19.24;62.29;100578.94;10531414;22;20055;-82
2022/06/11 22:08:15;;;;;;;3.20;2.70;;;;;;;19.11;63.00;100585.94;10515113;28;20094;-83
2022/06/11 22:13:16;;;;;;;5.07;3.60;;;;;;;19.16;63.00;100589.19;10518548;28;20098;-82
2022/06/11 22:18:18;;;;;;;6.30;3.95;;;;;;;19.36;62.50;100585.38;10521361;28;20042;-82
2022/06/11 22:23:20;;;;;;;4.20;3.70;;;;;;;19.17;63.57;100585.63;10527226;28;20057;-82
2022/06/11 22:28:22;;;;;;;4.20;3.60;;;;;;;19.01;63.93;100593.63;10529074;28;20074;-82
2022/06/11 22:33:24;;;;;;;6.70;6.18;;;;;;;18.90;65.14;100588.94;10529285;28;20108;-82
2022/06/11 22:38:26;;;;;;;6.32;5.82;;;;;;;19.07;64.28;100593.25;10527983;28;20051;-82
2022/06/11 22:43:28;;;;;;;7.40;6.70;;;;;;;19.20;63.09;100597.88;10527117;28;20048;-81
2022/06/11 22:48:30;;;;;;;6.05;5.45;;;;;;;19.16;63.25;100592.72;10526642;28;20100;-81
2022/06/11 22:53:31;;;;;;;4.18;3.78;;;;;;;18.91;63.43;100595.13;10522901;28;20040;-81
2022/06/11 22:58:39;;;;;;;5.15;4.75;;;;;;;18.49;65.07;100598.34;10522352;28;20127;-82
2022/06/11 23:03:41;;;;;;;4.45;2.80;;;;;;;18.47;64.96;100586.94;10522520;28;20045;-83
2022/06/11 23:08:43;;;;;;;5.28;3.00;;;;;;;18.23;66.54;100587.34;10521053;28;20036;-83
2022/06/11 23:13:50;;;;;;;3.65;2.80;;;;;;;18.10;66.15;100587.13;10518685;28;20044;-81
2022/06/11 23:18:52;;;;;;;;;;;;;;;17.98;66.69;100584.31;10522604;28;20043;-81
2022/06/11 23:23:55;;;;;;;3.47;2.40;;;;;;;17.89;67.10;100586.50;10520548;28;19924;-82
2022/06/11 23:28:57;;;;;;;2.78;2.47;;;;;;;17.89;67.17;100588.31;10517635;28;20059;-82
2022/06/11 23:33:59;;;;;;;4.53;3.10;;;;;;;17.94;66.75;100582.75;10517657;28;20083;-83
2022/06/11 23:39:03;;;;;;;5.47;4.45;;;;;;;17.95;67.23;100585.31;10516856;28;20051;-82
2022/06/11 23:44:05;;;;;;;4.25;3.85;;;;;;;17.72;67.53;100583.00;10515543;28;20067;-82
2022/06/11 23:49:06;;;;;;;4.05;3.10;;;;;;;17.63;67.59;100579.03;10515660;28;20044;-82